Skip Navigation LinksHome page > Weather > Current weather Skip Navigation Links

Current Weather

San Francisco International, San Francisco

For information only: do not use for flight planning or navigation.
Latest weather
Observation time Tuesday, January 26, 2021 2:56 PM PST
Local time Tuesday, January 26, 2021 3:47 PM PST
Flight conditions Visual Meteorological Conditions
Winds
Wind direction South-Southeast (160°)
Wind speed 12 mph
Visibility 9 mi.
Sky condition
Ceiling 6,000 ft. broken clouds
Cloud layer few clouds 4,000 ft.
Cloud layer broken clouds 6,000 ft.
Cloud layer overcast 7,000 ft.
Temperature 50°F
Dewpoint 37°F
Altimeter 29.90 in.Hg
Precipitation
Rain began 2:12 PM
Rain ended 2:24 PM
Precipitation last hour trace
Derived measurements
Relative humidity 61%
Wind chill 46°F
Density altitude -449 ft.
Sea-level pressure 29.90 in.Hg
Remarks
Automated weather observing station with precipitation discriminator.
METAR KSFO 262256Z 16010KT 9SM FEW040 BKN060 OVC070 10/03 A2990 RMK AO2 RAB12E24 SLP125 P0000 T01000028

Settings

Location code

InnerDrive.Weather 4.0.6770.0 Release CLR 4.0.30319.42000
Copyright ©2018 Inner Drive Technology. All rights reserved. Portions Copyright ©1986-2018 David Braverman.

Find weather

Site navigation


Skip Navigation Links

Place info

Page info

PayPal - The safer, easier way to pay online!

Return home.

Copyright ©2021 Inner Drive Technology. Purveyors of fine, hand-crafted computer software. Page printed 2021-01-26T23:47:50 UTC.